sensor_id;sensor_type;location;lat;lon;timestamp;P1;durP1;ratioP1;P2;durP2;ratioP2
6679;SDS011;3376;42.664;23.346;2022-09-27T00:01:31;8.83;;;8.03;;
6679;SDS011;3376;42.664;23.346;2022-09-27T00:03:58;9.57;;;9.07;;
6679;SDS011;3376;42.664;23.346;2022-09-27T00:06:26;8.87;;;8.33;;
6679;SDS011;3376;42.664;23.346;2022-09-27T00:08:54;8.90;;;8.30;;
6679;SDS011;3376;42.664;23.346;2022-09-27T00:11:23;7.80;;;7.40;;
6679;SDS011;3376;42.664;23.346;2022-09-27T00:13:52;8.27;;;7.87;;
6679;SDS011;3376;42.664;23.346;2022-09-27T00:16:22;8.70;;;8.30;;
6679;SDS011;3376;42.664;23.346;2022-09-27T00:18:50;7.70;;;7.20;;
6679;SDS011;3376;42.664;23.346;2022-09-27T00:21:16;8.60;;;8.20;;
6679;SDS011;3376;42.664;23.346;2022-09-27T00:23:43;9.00;;;8.60;;
6679;SDS011;3376;42.664;23.346;2022-09-27T00:26:11;8.43;;;8.13;;
6679;SDS011;3376;42.664;23.346;2022-09-27T00:28:38;8.63;;;8.30;;
6679;SDS011;3376;42.664;23.346;2022-09-27T00:31:10;8.23;;;7.50;;
6679;SDS011;3376;42.664;23.346;2022-09-27T00:33:46;7.97;;;7.40;;
6679;SDS011;3376;42.664;23.346;2022-09-27T00:36:13;7.90;;;7.50;;
6679;SDS011;3376;42.664;23.346;2022-09-27T00:38:41;8.20;;;7.70;;
6679;SDS011;3376;42.664;23.346;2022-09-27T00:41:08;8.07;;;7.60;;
6679;SDS011;3376;42.664;23.346;2022-09-27T00:43:42;7.77;;;7.40;;
6679;SDS011;3376;42.664;23.346;2022-09-27T00:46:12;7.90;;;7.47;;
6679;SDS011;3376;42.664;23.346;2022-09-27T00:48:42;7.67;;;7.27;;
6679;SDS011;3376;42.664;23.346;2022-09-27T00:51:10;8.73;;;8.20;;
6679;SDS011;3376;42.664;23.346;2022-09-27T00:53:38;8.33;;;7.93;;
6679;SDS011;3376;42.664;23.346;2022-09-27T00:56:12;8.83;;;8.43;;
6679;SDS011;3376;42.664;23.346;2022-09-27T00:58:44;7.97;;;7.60;;
6679;SDS011;3376;42.664;23.346;2022-09-27T01:01:16;8.47;;;7.77;;
6679;SDS011;3376;42.664;23.346;2022-09-27T01:03:43;8.97;;;8.50;;
6679;SDS011;3376;42.664;23.346;2022-09-27T01:06:16;8.90;;;8.27;;
6679;SDS011;3376;42.664;23.346;2022-09-27T01:08:45;8.17;;;7.63;;
6679;SDS011;3376;42.664;23.346;2022-09-27T01:11:13;7.63;;;7.13;;
6679;SDS011;3376;42.664;23.346;2022-09-27T01:13:53;7.90;;;7.30;;
6679;SDS011;3376;42.664;23.346;2022-09-27T01:16:34;8.27;;;7.77;;
6679;SDS011;3376;42.664;23.346;2022-09-27T01:19:09;9.00;;;8.60;;
6679;SDS011;3376;42.664;23.346;2022-09-27T01:21:54;8.80;;;8.00;;
6679;SDS011;3376;42.664;23.346;2022-09-27T01:30:24;8.57;;;8.07;;
6679;SDS011;3376;42.664;23.346;2022-09-27T01:32:57;8.30;;;8.00;;
6679;SDS011;3376;42.664;23.346;2022-09-27T01:35:39;9.10;;;8.53;;
6679;SDS011;3376;42.664;23.346;2022-09-27T01:38:17;7.87;;;7.47;;
6679;SDS011;3376;42.664;23.346;2022-09-27T01:40:52;8.53;;;8.17;;
6679;SDS011;3376;42.664;23.346;2022-09-27T01:43:25;8.53;;;7.93;;
6679;SDS011;3376;42.664;23.346;2022-09-27T01:45:59;8.87;;;8.20;;
6679;SDS011;3376;42.664;23.346;2022-09-27T01:48:31;8.30;;;8.00;;
6679;SDS011;3376;42.664;23.346;2022-09-27T01:51:03;8.67;;;8.30;;
6679;SDS011;3376;42.664;23.346;2022-09-27T01:53:35;8.70;;;8.17;;
6679;SDS011;3376;42.664;23.346;2022-09-27T01:56:05;8.20;;;7.90;;
6679;SDS011;3376;42.664;23.346;2022-09-27T01:58:36;8.60;;;8.13;;
6679;SDS011;3376;42.664;23.346;2022-09-27T02:01:10;8.40;;;8.03;;
6679;SDS011;3376;42.664;23.346;2022-09-27T02:03:40;9.13;;;8.63;;
6679;SDS011;3376;42.664;23.346;2022-09-27T02:06:11;9.13;;;8.47;;
6679;SDS011;3376;42.664;23.346;2022-09-27T02:08:42;8.27;;;7.77;;
6679;SDS011;3376;42.664;23.346;2022-09-27T02:11:12;8.50;;;8.00;;
6679;SDS011;3376;42.664;23.346;2022-09-27T02:13:42;8.90;;;8.30;;
6679;SDS011;3376;42.664;23.346;2022-09-27T02:16:18;8.07;;;7.67;;
6679;SDS011;3376;42.664;23.346;2022-09-27T02:18:52;7.67;;;7.37;;
6679;SDS011;3376;42.664;23.346;2022-09-27T02:21:23;8.63;;;8.03;;
6679;SDS011;3376;42.664;23.346;2022-09-27T02:24:03;7.43;;;6.93;;
6679;SDS011;3376;42.664;23.346;2022-09-27T02:26:34;7.90;;;7.50;;
6679;SDS011;3376;42.664;23.346;2022-09-27T02:29:06;8.43;;;7.93;;
6679;SDS011;3376;42.664;23.346;2022-09-27T02:31:37;8.40;;;8.00;;
6679;SDS011;3376;42.664;23.346;2022-09-27T02:34:05;8.83;;;8.17;;
6679;SDS011;3376;42.664;23.346;2022-09-27T02:36:34;8.63;;;8.23;;
6679;SDS011;3376;42.664;23.346;2022-09-27T02:39:01;9.00;;;8.50;;
6679;SDS011;3376;42.664;23.346;2022-09-27T02:41:28;9.10;;;8.60;;
6679;SDS011;3376;42.664;23.346;2022-09-27T02:43:56;9.00;;;8.60;;
6679;SDS011;3376;42.664;23.346;2022-09-27T02:46:34;8.83;;;8.47;;
6679;SDS011;3376;42.664;23.346;2022-09-27T02:49:36;9.17;;;8.67;;
6679;SDS011;3376;42.664;23.346;2022-09-27T02:52:17;8.60;;;8.10;;
6679;SDS011;3376;42.664;23.346;2022-09-27T02:54:56;8.83;;;8.43;;
6679;SDS011;3376;42.664;23.346;2022-09-27T02:57:32;8.53;;;8.20;;
6679;SDS011;3376;42.664;23.346;2022-09-27T03:00:07;8.73;;;8.30;;
6679;SDS011;3376;42.664;23.346;2022-09-27T03:02:38;9.23;;;8.73;;
6679;SDS011;3376;42.664;23.346;2022-09-27T03:05:16;8.70;;;8.30;;
6679;SDS011;3376;42.664;23.346;2022-09-27T03:07:46;8.43;;;7.83;;
6679;SDS011;3376;42.664;23.346;2022-09-27T03:10:14;9.13;;;8.53;;
6679;SDS011;3376;42.664;23.346;2022-09-27T03:12:42;9.33;;;8.60;;
6679;SDS011;3376;42.664;23.346;2022-09-27T03:15:09;9.13;;;8.63;;
6679;SDS011;3376;42.664;23.346;2022-09-27T03:17:39;9.30;;;8.80;;
6679;SDS011;3376;42.664;23.346;2022-09-27T03:20:06;9.10;;;8.50;;
6679;SDS011;3376;42.664;23.346;2022-09-27T03:22:33;8.90;;;8.50;;
6679;SDS011;3376;42.664;23.346;2022-09-27T03:25:02;8.37;;;8.07;;
6679;SDS011;3376;42.664;23.346;2022-09-27T03:27:30;8.87;;;8.47;;
6679;SDS011;3376;42.664;23.346;2022-09-27T03:29:57;9.40;;;8.77;;
6679;SDS011;3376;42.664;23.346;2022-09-27T03:32:24;9.43;;;9.03;;
6679;SDS011;3376;42.664;23.346;2022-09-27T03:34:53;8.80;;;8.33;;
6679;SDS011;3376;42.664;23.346;2022-09-27T03:37:20;10.87;;;10.07;;
6679;SDS011;3376;42.664;23.346;2022-09-27T03:39:47;9.03;;;8.53;;
6679;SDS011;3376;42.664;23.346;2022-09-27T03:42:14;9.23;;;8.60;;
6679;SDS011;3376;42.664;23.346;2022-09-27T03:44:40;9.37;;;8.87;;
6679;SDS011;3376;42.664;23.346;2022-09-27T03:47:07;9.53;;;9.13;;
6679;SDS011;3376;42.664;23.346;2022-09-27T03:49:34;9.40;;;9.00;;
6679;SDS011;3376;42.664;23.346;2022-09-27T03:52:02;11.00;;;10.10;;
6679;SDS011;3376;42.664;23.346;2022-09-27T03:54:29;10.43;;;9.93;;
6679;SDS011;3376;42.664;23.346;2022-09-27T03:56:56;10.90;;;10.40;;
6679;SDS011;3376;42.664;23.346;2022-09-27T03:59:23;11.67;;;10.93;;
6679;SDS011;3376;42.664;23.346;2022-09-27T04:01:50;11.30;;;10.53;;
6679;SDS011;3376;42.664;23.346;2022-09-27T04:04:17;11.83;;;11.27;;
6679;SDS011;3376;42.664;23.346;2022-09-27T04:06:44;12.00;;;11.40;;
6679;SDS011;3376;42.664;23.346;2022-09-27T04:09:12;11.93;;;11.30;;
6679;SDS011;3376;42.664;23.346;2022-09-27T04:11:39;12.73;;;12.03;;
6679;SDS011;3376;42.664;23.346;2022-09-27T04:14:06;12.40;;;11.80;;
6679;SDS011;3376;42.664;23.346;2022-09-27T04:16:37;13.10;;;12.30;;
6679;SDS011;3376;42.664;23.346;2022-09-27T04:19:04;12.93;;;12.20;;
6679;SDS011;3376;42.664;23.346;2022-09-27T04:21:31;13.67;;;12.60;;
6679;SDS011;3376;42.664;23.346;2022-09-27T04:23:58;13.67;;;12.87;;
6679;SDS011;3376;42.664;23.346;2022-09-27T04:26:26;13.33;;;12.57;;
6679;SDS011;3376;42.664;23.346;2022-09-27T04:28:53;13.50;;;12.57;;
6679;SDS011;3376;42.664;23.346;2022-09-27T04:31:20;13.33;;;12.47;;
6679;SDS011;3376;42.664;23.346;2022-09-27T04:33:48;13.90;;;12.93;;
6679;SDS011;3376;42.664;23.346;2022-09-27T04:36:16;14.30;;;13.30;;
6679;SDS011;3376;42.664;23.346;2022-09-27T04:38:53;14.73;;;13.63;;
6679;SDS011;3376;42.664;23.346;2022-09-27T04:41:21;12.87;;;12.07;;
6679;SDS011;3376;42.664;23.346;2022-09-27T04:43:51;13.33;;;12.60;;
6679;SDS011;3376;42.664;23.346;2022-09-27T04:46:18;13.93;;;13.23;;
6679;SDS011;3376;42.664;23.346;2022-09-27T04:48:45;13.03;;;12.33;;
6679;SDS011;3376;42.664;23.346;2022-09-27T04:51:12;14.30;;;13.40;;
6679;SDS011;3376;42.664;23.346;2022-09-27T04:53:41;15.00;;;13.90;;
6679;SDS011;3376;42.664;23.346;2022-09-27T04:56:08;13.70;;;12.90;;
6679;SDS011;3376;42.664;23.346;2022-09-27T04:58:36;13.47;;;12.67;;
6679;SDS011;3376;42.664;23.346;2022-09-27T05:01:05;14.77;;;13.93;;
6679;SDS011;3376;42.664;23.346;2022-09-27T05:03:33;14.07;;;13.17;;
6679;SDS011;3376;42.664;23.346;2022-09-27T05:06:00;14.37;;;13.43;;
6679;SDS011;3376;42.664;23.346;2022-09-27T05:08:27;14.83;;;13.83;;
6679;SDS011;3376;42.664;23.346;2022-09-27T05:10:54;12.83;;;12.03;;
6679;SDS011;3376;42.664;23.346;2022-09-27T05:13:21;14.40;;;13.13;;
6679;SDS011;3376;42.664;23.346;2022-09-27T05:15:48;15.33;;;14.20;;
6679;SDS011;3376;42.664;23.346;2022-09-27T05:18:17;14.87;;;13.87;;
6679;SDS011;3376;42.664;23.346;2022-09-27T05:20:44;13.10;;;12.00;;
6679;SDS011;3376;42.664;23.346;2022-09-27T05:23:11;14.07;;;13.10;;
6679;SDS011;3376;42.664;23.346;2022-09-27T05:25:39;10.53;;;9.93;;
6679;SDS011;3376;42.664;23.346;2022-09-27T05:28:06;12.37;;;11.70;;
6679;SDS011;3376;42.664;23.346;2022-09-27T05:30:33;12.70;;;11.60;;
6679;SDS011;3376;42.664;23.346;2022-09-27T05:33:01;12.10;;;11.40;;
6679;SDS011;3376;42.664;23.346;2022-09-27T05:35:29;12.20;;;11.43;;
6679;SDS011;3376;42.664;23.346;2022-09-27T05:37:58;12.00;;;11.00;;
6679;SDS011;3376;42.664;23.346;2022-09-27T05:40:25;12.80;;;11.87;;
6679;SDS011;3376;42.664;23.346;2022-09-27T05:42:53;13.73;;;12.83;;
6679;SDS011;3376;42.664;23.346;2022-09-27T05:45:21;13.87;;;12.93;;
6679;SDS011;3376;42.664;23.346;2022-09-27T05:47:52;13.97;;;13.07;;
6679;SDS011;3376;42.664;23.346;2022-09-27T05:50:20;16.07;;;14.83;;
6679;SDS011;3376;42.664;23.346;2022-09-27T05:52:49;15.30;;;14.43;;
6679;SDS011;3376;42.664;23.346;2022-09-27T05:55:16;15.23;;;14.43;;
6679;SDS011;3376;42.664;23.346;2022-09-27T05:57:52;16.13;;;15.00;;
6679;SDS011;3376;42.664;23.346;2022-09-27T06:00:20;16.30;;;15.20;;
6679;SDS011;3376;42.664;23.346;2022-09-27T06:02:51;15.83;;;14.83;;
6679;SDS011;3376;42.664;23.346;2022-09-27T06:05:19;16.17;;;15.23;;
6679;SDS011;3376;42.664;23.346;2022-09-27T06:07:46;17.30;;;16.00;;
6679;SDS011;3376;42.664;23.346;2022-09-27T06:10:16;16.80;;;15.80;;
6679;SDS011;3376;42.664;23.346;2022-09-27T06:12:44;17.40;;;15.90;;
6679;SDS011;3376;42.664;23.346;2022-09-27T06:15:11;18.13;;;16.83;;
6679;SDS011;3376;42.664;23.346;2022-09-27T06:17:38;15.40;;;14.53;;
6679;SDS011;3376;42.664;23.346;2022-09-27T06:20:06;17.20;;;16.00;;
6679;SDS011;3376;42.664;23.346;2022-09-27T06:22:34;18.00;;;16.47;;
6679;SDS011;3376;42.664;23.346;2022-09-27T06:25:01;16.93;;;15.83;;
6679;SDS011;3376;42.664;23.346;2022-09-27T06:27:30;17.40;;;16.23;;
6679;SDS011;3376;42.664;23.346;2022-09-27T06:29:57;17.93;;;16.47;;
6679;SDS011;3376;42.664;23.346;2022-09-27T06:32:24;18.43;;;16.30;;
6679;SDS011;3376;42.664;23.346;2022-09-27T06:34:51;16.50;;;15.20;;
6679;SDS011;3376;42.664;23.346;2022-09-27T06:37:18;15.53;;;14.57;;
6679;SDS011;3376;42.664;23.346;2022-09-27T06:39:45;16.27;;;15.10;;
6679;SDS011;3376;42.664;23.346;2022-09-27T06:42:13;16.40;;;15.27;;
6679;SDS011;3376;42.664;23.346;2022-09-27T06:44:44;17.77;;;16.27;;
6679;SDS011;3376;42.664;23.346;2022-09-27T06:47:11;16.03;;;14.90;;
6679;SDS011;3376;42.664;23.346;2022-09-27T06:49:38;16.43;;;15.23;;
6679;SDS011;3376;42.664;23.346;2022-09-27T06:52:05;16.73;;;15.53;;
6679;SDS011;3376;42.664;23.346;2022-09-27T06:54:32;16.30;;;15.27;;
6679;SDS011;3376;42.664;23.346;2022-09-27T06:56:59;16.63;;;15.57;;
6679;SDS011;3376;42.664;23.346;2022-09-27T06:59:26;16.47;;;15.23;;
6679;SDS011;3376;42.664;23.346;2022-09-27T07:02:11;17.03;;;15.97;;
6679;SDS011;3376;42.664;23.346;2022-09-27T07:04:38;17.13;;;15.93;;
6679;SDS011;3376;42.664;23.346;2022-09-27T07:07:05;17.30;;;16.10;;
6679;SDS011;3376;42.664;23.346;2022-09-27T07:09:33;16.97;;;15.57;;
6679;SDS011;3376;42.664;23.346;2022-09-27T07:12:03;18.60;;;17.23;;
6679;SDS011;3376;42.664;23.346;2022-09-27T07:14:30;18.63;;;17.20;;
6679;SDS011;3376;42.664;23.346;2022-09-27T07:16:58;18.60;;;17.37;;
6679;SDS011;3376;42.664;23.346;2022-09-27T07:19:26;18.50;;;16.93;;
6679;SDS011;3376;42.664;23.346;2022-09-27T07:21:53;17.93;;;16.73;;
6679;SDS011;3376;42.664;23.346;2022-09-27T07:24:20;17.03;;;15.73;;
6679;SDS011;3376;42.664;23.346;2022-09-27T07:26:47;18.13;;;16.97;;
6679;SDS011;3376;42.664;23.346;2022-09-27T07:29:13;17.27;;;16.17;;
6679;SDS011;3376;42.664;23.346;2022-09-27T07:31:40;15.80;;;14.93;;
6679;SDS011;3376;42.664;23.346;2022-09-27T07:34:07;18.87;;;17.53;;
6679;SDS011;3376;42.664;23.346;2022-09-27T07:36:37;16.40;;;15.23;;
6679;SDS011;3376;42.664;23.346;2022-09-27T07:39:04;37.80;;;32.57;;
6679;SDS011;3376;42.664;23.346;2022-09-27T07:41:31;18.10;;;16.60;;
6679;SDS011;3376;42.664;23.346;2022-09-27T07:43:58;16.90;;;15.80;;
6679;SDS011;3376;42.664;23.346;2022-09-27T07:46:25;21.10;;;19.20;;
6679;SDS011;3376;42.664;23.346;2022-09-27T07:48:51;22.87;;;20.73;;
6679;SDS011;3376;42.664;23.346;2022-09-27T07:51:18;17.70;;;16.20;;
6679;SDS011;3376;42.664;23.346;2022-09-27T07:53:47;20.93;;;18.97;;
6679;SDS011;3376;42.664;23.346;2022-09-27T07:56:14;18.60;;;17.10;;
6679;SDS011;3376;42.664;23.346;2022-09-27T07:58:41;17.30;;;15.70;;
6679;SDS011;3376;42.664;23.346;2022-09-27T08:01:08;15.80;;;14.80;;
6679;SDS011;3376;42.664;23.346;2022-09-27T08:03:35;16.40;;;15.27;;
6679;SDS011;3376;42.664;23.346;2022-09-27T08:06:02;18.33;;;16.77;;
6679;SDS011;3376;42.664;23.346;2022-09-27T08:08:29;16.57;;;15.57;;
6679;SDS011;3376;42.664;23.346;2022-09-27T08:10:57;18.27;;;16.80;;
6679;SDS011;3376;42.664;23.346;2022-09-27T08:13:24;18.33;;;16.80;;
6679;SDS011;3376;42.664;23.346;2022-09-27T08:15:51;17.40;;;16.23;;
6679;SDS011;3376;42.664;23.346;2022-09-27T08:18:18;17.50;;;16.20;;
6679;SDS011;3376;42.664;23.346;2022-09-27T08:20:46;17.03;;;15.90;;
6679;SDS011;3376;42.664;23.346;2022-09-27T08:23:13;17.67;;;16.30;;
6679;SDS011;3376;42.664;23.346;2022-09-27T08:25:39;15.50;;;14.43;;
6679;SDS011;3376;42.664;23.346;2022-09-27T08:28:08;34.37;;;30.67;;
6679;SDS011;3376;42.664;23.346;2022-09-27T08:30:35;26.67;;;23.87;;
6679;SDS011;3376;42.664;23.346;2022-09-27T08:33:02;19.70;;;17.93;;
6679;SDS011;3376;42.664;23.346;2022-09-27T08:35:30;23.47;;;21.47;;
6679;SDS011;3376;42.664;23.346;2022-09-27T08:37:58;19.20;;;17.80;;
6679;SDS011;3376;42.664;23.346;2022-09-27T08:40:28;20.20;;;18.80;;
6679;SDS011;3376;42.664;23.346;2022-09-27T08:43:03;20.03;;;18.57;;
6679;SDS011;3376;42.664;23.346;2022-09-27T08:45:41;22.23;;;19.63;;
6679;SDS011;3376;42.664;23.346;2022-09-27T08:48:21;20.17;;;18.20;;
6679;SDS011;3376;42.664;23.346;2022-09-27T08:50:49;19.40;;;17.90;;
6679;SDS011;3376;42.664;23.346;2022-09-27T08:53:17;22.00;;;20.17;;
6679;SDS011;3376;42.664;23.346;2022-09-27T08:55:48;20.67;;;19.00;;
6679;SDS011;3376;42.664;23.346;2022-09-27T08:58:19;21.83;;;20.23;;
6679;SDS011;3376;42.664;23.346;2022-09-27T09:00:52;22.80;;;20.50;;
6679;SDS011;3376;42.664;23.346;2022-09-27T09:03:22;21.20;;;19.60;;
6679;SDS011;3376;42.664;23.346;2022-09-27T09:05:56;21.97;;;19.97;;
6679;SDS011;3376;42.664;23.346;2022-09-27T09:08:36;21.50;;;19.97;;
6679;SDS011;3376;42.664;23.346;2022-09-27T09:11:13;22.80;;;20.73;;
6679;SDS011;3376;42.664;23.346;2022-09-27T09:17:12;21.50;;;19.90;;
6679;SDS011;3376;42.664;23.346;2022-09-27T09:19:59;20.73;;;19.13;;
6679;SDS011;3376;42.664;23.346;2022-09-27T09:22:43;19.70;;;18.27;;
6679;SDS011;3376;42.664;23.346;2022-09-27T09:25:22;17.93;;;16.50;;
6679;SDS011;3376;42.664;23.346;2022-09-27T09:28:01;16.43;;;15.43;;
6679;SDS011;3376;42.664;23.346;2022-09-27T09:30:40;16.50;;;15.43;;
6679;SDS011;3376;42.664;23.346;2022-09-27T09:33:17;17.47;;;15.90;;
6679;SDS011;3376;42.664;23.346;2022-09-27T09:35:51;16.80;;;15.53;;
6679;SDS011;3376;42.664;23.346;2022-09-27T09:38:24;15.07;;;13.87;;
6679;SDS011;3376;42.664;23.346;2022-09-27T09:40:59;15.50;;;14.23;;
6679;SDS011;3376;42.664;23.346;2022-09-27T09:43:31;14.93;;;14.03;;
6679;SDS011;3376;42.664;23.346;2022-09-27T09:46:06;13.17;;;12.37;;
6679;SDS011;3376;42.664;23.346;2022-09-27T09:48:38;15.03;;;13.97;;
6679;SDS011;3376;42.664;23.346;2022-09-27T09:51:12;13.27;;;12.50;;
6679;SDS011;3376;42.664;23.346;2022-09-27T09:53:44;14.20;;;13.10;;
6679;SDS011;3376;42.664;23.346;2022-09-27T09:56:19;13.77;;;13.00;;
6679;SDS011;3376;42.664;23.346;2022-09-27T09:58:50;13.77;;;12.97;;
6679;SDS011;3376;42.664;23.346;2022-09-27T10:01:23;13.63;;;12.93;;
6679;SDS011;3376;42.664;23.346;2022-09-27T10:03:55;13.97;;;13.20;;
6679;SDS011;3376;42.664;23.346;2022-09-27T10:06:22;13.90;;;12.77;;
6679;SDS011;3376;42.664;23.346;2022-09-27T10:08:51;14.37;;;13.30;;
6679;SDS011;3376;42.664;23.346;2022-09-27T10:11:20;12.93;;;12.13;;
6679;SDS011;3376;42.664;23.346;2022-09-27T10:13:50;12.43;;;11.73;;
6679;SDS011;3376;42.664;23.346;2022-09-27T10:16:19;12.87;;;12.03;;
6679;SDS011;3376;42.664;23.346;2022-09-27T10:18:47;12.10;;;11.40;;
6679;SDS011;3376;42.664;23.346;2022-09-27T10:21:20;12.43;;;11.57;;
6679;SDS011;3376;42.664;23.346;2022-09-27T10:24:09;12.67;;;12.00;;
6679;SDS011;3376;42.664;23.346;2022-09-27T10:26:37;12.63;;;12.03;;
6679;SDS011;3376;42.664;23.346;2022-09-27T10:31:56;19.17;;;17.67;;
6679;SDS011;3376;42.664;23.346;2022-09-27T10:34:29;12.73;;;12.07;;
6679;SDS011;3376;42.664;23.346;2022-09-27T10:37:04;14.87;;;13.87;;
6679;SDS011;3376;42.664;23.346;2022-09-27T10:39:41;16.23;;;15.00;;
6679;SDS011;3376;42.664;23.346;2022-09-27T10:42:22;12.93;;;12.13;;
6679;SDS011;3376;42.664;23.346;2022-09-27T10:44:58;13.93;;;13.03;;
6679;SDS011;3376;42.664;23.346;2022-09-27T10:47:45;12.83;;;12.03;;
6679;SDS011;3376;42.664;23.346;2022-09-27T10:50:15;14.03;;;13.17;;
6679;SDS011;3376;42.664;23.346;2022-09-27T10:52:47;12.93;;;12.13;;
6679;SDS011;3376;42.664;23.346;2022-09-27T10:55:20;11.10;;;10.27;;
6679;SDS011;3376;42.664;23.346;2022-09-27T10:57:49;12.17;;;11.03;;
6679;SDS011;3376;42.664;23.346;2022-09-27T11:00:20;11.40;;;10.43;;
6679;SDS011;3376;42.664;23.346;2022-09-27T11:02:50;11.83;;;10.97;;
6679;SDS011;3376;42.664;23.346;2022-09-27T11:05:28;10.13;;;9.60;;
6679;SDS011;3376;42.664;23.346;2022-09-27T11:08:00;12.40;;;11.77;;
6679;SDS011;3376;42.664;23.346;2022-09-27T11:10:29;9.47;;;8.87;;
6679;SDS011;3376;42.664;23.346;2022-09-27T11:13:07;9.20;;;8.80;;
6679;SDS011;3376;42.664;23.346;2022-09-27T11:15:41;9.93;;;9.27;;
6679;SDS011;3376;42.664;23.346;2022-09-27T11:18:21;9.43;;;9.03;;
6679;SDS011;3376;42.664;23.346;2022-09-27T11:20:57;9.93;;;9.30;;
6679;SDS011;3376;42.664;23.346;2022-09-27T11:23:36;10.03;;;9.40;;
6679;SDS011;3376;42.664;23.346;2022-09-27T11:26:35;9.93;;;9.10;;
6679;SDS011;3376;42.664;23.346;2022-09-27T11:29:16;9.37;;;8.67;;
6679;SDS011;3376;42.664;23.346;2022-09-27T11:31:55;9.33;;;8.83;;
6679;SDS011;3376;42.664;23.346;2022-09-27T11:34:47;8.83;;;8.33;;
6679;SDS011;3376;42.664;23.346;2022-09-27T11:37:26;9.47;;;8.93;;
6679;SDS011;3376;42.664;23.346;2022-09-27T11:40:06;8.67;;;8.27;;
6679;SDS011;3376;42.664;23.346;2022-09-27T11:42:59;9.47;;;8.83;;
6679;SDS011;3376;42.664;23.346;2022-09-27T11:45:53;8.63;;;8.13;;
6679;SDS011;3376;42.664;23.346;2022-09-27T11:51:26;8.03;;;7.73;;
6679;SDS011;3376;42.664;23.346;2022-09-27T11:54:04;6.45;;;5.97;;
6679;SDS011;3376;42.664;23.346;2022-09-27T11:56:52;6.60;;;6.25;;
6679;SDS011;3376;42.664;23.346;2022-09-27T11:59:31;6.78;;;6.40;;
6679;SDS011;3376;42.664;23.346;2022-09-27T12:05:06;5.18;;;4.97;;
6679;SDS011;3376;42.664;23.346;2022-09-27T12:07:52;5.95;;;5.57;;
6679;SDS011;3376;42.664;23.346;2022-09-27T12:10:31;5.75;;;5.45;;
6679;SDS011;3376;42.664;23.346;2022-09-27T12:13:02;4.90;;;4.70;;
6679;SDS011;3376;42.664;23.346;2022-09-27T12:15:31;4.32;;;4.22;;
6679;SDS011;3376;42.664;23.346;2022-09-27T12:18:06;5.25;;;4.75;;
6679;SDS011;3376;42.664;23.346;2022-09-27T12:20:38;4.55;;;4.22;;
6679;SDS011;3376;42.664;23.346;2022-09-27T12:23:09;4.75;;;4.43;;
6679;SDS011;3376;42.664;23.346;2022-09-27T12:28:33;6.60;;;4.78;;
6679;SDS011;3376;42.664;23.346;2022-09-27T12:31:06;5.57;;;5.07;;
6679;SDS011;3376;42.664;23.346;2022-09-27T12:33:43;4.78;;;4.57;;
6679;SDS011;3376;42.664;23.346;2022-09-27T12:36:17;4.70;;;4.35;;
6679;SDS011;3376;42.664;23.346;2022-09-27T12:38:49;4.90;;;4.60;;
6679;SDS011;3376;42.664;23.346;2022-09-27T12:41:21;4.45;;;4.25;;
6679;SDS011;3376;42.664;23.346;2022-09-27T12:43:53;4.88;;;4.25;;
6679;SDS011;3376;42.664;23.346;2022-09-27T12:46:23;4.15;;;4.00;;
6679;SDS011;3376;42.664;23.346;2022-09-27T12:48:59;4.47;;;4.18;;
6679;SDS011;3376;42.664;23.346;2022-09-27T12:51:31;4.28;;;3.97;;
6679;SDS011;3376;42.664;23.346;2022-09-27T12:54:09;3.78;;;3.58;;
6679;SDS011;3376;42.664;23.346;2022-09-27T12:56:50;3.72;;;3.53;;
6679;SDS011;3376;42.664;23.346;2022-09-27T12:59:28;3.50;;;3.17;;
6679;SDS011;3376;42.664;23.346;2022-09-27T13:02:18;4.35;;;4.10;;
6679;SDS011;3376;42.664;23.346;2022-09-27T13:05:02;3.67;;;3.58;;
6679;SDS011;3376;42.664;23.346;2022-09-27T13:07:49;3.67;;;3.30;;
6679;SDS011;3376;42.664;23.346;2022-09-27T13:10:44;3.45;;;3.15;;
6679;SDS011;3376;42.664;23.346;2022-09-27T13:13:18;3.40;;;3.30;;
6679;SDS011;3376;42.664;23.346;2022-09-27T13:15:53;4.90;;;3.45;;
6679;SDS011;3376;42.664;23.346;2022-09-27T13:18:27;3.75;;;3.50;;
6679;SDS011;3376;42.664;23.346;2022-09-27T13:20:56;2.78;;;2.67;;
6679;SDS011;3376;42.664;23.346;2022-09-27T13:26:43;2.75;;;2.55;;
6679;SDS011;3376;42.664;23.346;2022-09-27T13:29:21;5.88;;;3.17;;
6679;SDS011;3376;42.664;23.346;2022-09-27T13:32:02;3.10;;;2.90;;
6679;SDS011;3376;42.664;23.346;2022-09-27T13:34:45;3.00;;;2.90;;
6679;SDS011;3376;42.664;23.346;2022-09-27T13:45:52;3.15;;;3.00;;
6679;SDS011;3376;42.664;23.346;2022-09-27T13:48:25;3.50;;;2.53;;
6679;SDS011;3376;42.664;23.346;2022-09-27T13:51:00;2.95;;;2.53;;
6679;SDS011;3376;42.664;23.346;2022-09-27T13:53:31;2.75;;;2.55;;
6679;SDS011;3376;42.664;23.346;2022-09-27T13:56:01;2.85;;;2.67;;
6679;SDS011;3376;42.664;23.346;2022-09-27T13:58:31;2.75;;;2.65;;
6679;SDS011;3376;42.664;23.346;2022-09-27T14:01:08;2.20;;;2.08;;
6679;SDS011;3376;42.664;23.346;2022-09-27T14:03:43;3.00;;;2.90;;
6679;SDS011;3376;42.664;23.346;2022-09-27T14:06:12;3.75;;;2.97;;
6679;SDS011;3376;42.664;23.346;2022-09-27T14:08:43;1.30;;;1.30;;
6679;SDS011;3376;42.664;23.346;2022-09-27T14:11:15;0.90;;;0.90;;
6679;SDS011;3376;42.664;23.346;2022-09-27T14:13:47;1.23;;;1.13;;
6679;SDS011;3376;42.664;23.346;2022-09-27T14:16:15;2.17;;;1.30;;
6679;SDS011;3376;42.664;23.346;2022-09-27T14:18:47;2.40;;;2.30;;
6679;SDS011;3376;42.664;23.346;2022-09-27T14:21:19;1.40;;;1.40;;
6679;SDS011;3376;42.664;23.346;2022-09-27T14:23:52;2.00;;;1.80;;
6679;SDS011;3376;42.664;23.346;2022-09-27T14:26:25;1.70;;;1.60;;
6679;SDS011;3376;42.664;23.346;2022-09-27T14:28:53;1.20;;;1.20;;
6679;SDS011;3376;42.664;23.346;2022-09-27T14:31:21;2.03;;;1.20;;
6679;SDS011;3376;42.664;23.346;2022-09-27T14:33:50;1.80;;;1.08;;
6679;SDS011;3376;42.664;23.346;2022-09-27T14:36:31;2.50;;;2.13;;
6679;SDS011;3376;42.664;23.346;2022-09-27T14:39:19;3.30;;;3.10;;
6679;SDS011;3376;42.664;23.346;2022-09-27T14:41:48;5.20;;;2.80;;
6679;SDS011;3376;42.664;23.346;2022-09-27T14:44:16;3.97;;;2.77;;
6679;SDS011;3376;42.664;23.346;2022-09-27T14:46:44;3.63;;;3.13;;
6679;SDS011;3376;42.664;23.346;2022-09-27T14:49:19;2.93;;;2.80;;
6679;SDS011;3376;42.664;23.346;2022-09-27T14:51:50;3.40;;;3.17;;
6679;SDS011;3376;42.664;23.346;2022-09-27T14:54:19;6.03;;;3.20;;
6679;SDS011;3376;42.664;23.346;2022-09-27T14:56:49;3.30;;;3.10;;
6679;SDS011;3376;42.664;23.346;2022-09-27T14:59:18;3.60;;;3.43;;
6679;SDS011;3376;42.664;23.346;2022-09-27T15:01:54;3.20;;;3.10;;
6679;SDS011;3376;42.664;23.346;2022-09-27T15:04:26;3.10;;;2.80;;
6679;SDS011;3376;42.664;23.346;2022-09-27T15:06:56;2.90;;;2.80;;
6679;SDS011;3376;42.664;23.346;2022-09-27T15:09:24;3.03;;;2.83;;
6679;SDS011;3376;42.664;23.346;2022-09-27T15:11:53;3.17;;;3.00;;
6679;SDS011;3376;42.664;23.346;2022-09-27T15:14:24;3.43;;;3.23;;
6679;SDS011;3376;42.664;23.346;2022-09-27T15:16:53;3.13;;;2.90;;
6679;SDS011;3376;42.664;23.346;2022-09-27T15:19:22;2.27;;;1.53;;
6679;SDS011;3376;42.664;23.346;2022-09-27T15:21:52;2.00;;;1.90;;
6679;SDS011;3376;42.664;23.346;2022-09-27T15:24:36;2.60;;;1.87;;
6679;SDS011;3376;42.664;23.346;2022-09-27T15:27:04;3.43;;;1.50;;
6679;SDS011;3376;42.664;23.346;2022-09-27T15:29:38;3.00;;;2.07;;
6679;SDS011;3376;42.664;23.346;2022-09-27T15:32:05;1.73;;;1.63;;
6679;SDS011;3376;42.664;23.346;2022-09-27T15:34:34;3.70;;;1.53;;
6679;SDS011;3376;42.664;23.346;2022-09-27T15:37:02;1.43;;;1.33;;
6679;SDS011;3376;42.664;23.346;2022-09-27T15:39:31;4.30;;;1.63;;
6679;SDS011;3376;42.664;23.346;2022-09-27T15:42:01;1.70;;;1.60;;
6679;SDS011;3376;42.664;23.346;2022-09-27T15:44:38;3.47;;;1.80;;
6679;SDS011;3376;42.664;23.346;2022-09-27T15:53:02;1.97;;;1.83;;